Aérodrome :
LOGIN :

S'inscrire | Disclaimer

   EN    FR    IT 

 










Légende :    VFR   VFR Marginal   IFR   IFR Intensif   IFR Très Intensif
Visi : 
Plafond : 
>= 8 km
>= 3000ft
5 à 8 km
1000 à 3000 ft
1500m à 5 km
500 à 1000 ft
800 à 1500m
200 à 500 ft
< 800m
< 200 ft
Symboles :   Orages  Brouillard  Fortes neiges  Fortes précipitations  Vent > 20 kt
SIGMETs :   Divers  Orages  Givrage  Turbulence  Onde Orograph.  Cendres Volcan.







- Altitude de l'aérodrome : 3006 ft
- Code IATA : LEN


LELN - Leon

DERNIER METAR :
  • 250700Z 05003KT 010V080 5000 BR -RA OVC003 13/13 Q1018

METARs EXPIRÉS :
  • 250630Z VRB02KT 7000 2000NE BKN003 OVC022 13/13 Q1018
  • 250600Z 09003KT 060V120 7000 2000NE BKN004 BKN016 OVC025 13/13 Q1018
  • 250530Z AUTO 14003KT 110V180 9999 BKN004 OVC014 13/13 Q1018
  • 250500Z AUTO 07003KT 050V110 9999 OVC004 13/13 Q1018
  • 250430Z AUTO 04003KT 010V070 9999 BKN006 OVC012 13/13 Q1018

TAF AMD TAF LELN
Valide du 25 à 07h jusqu'au 25 à 15h UTC


250710Z 2507/2515 VRB04KT 9999 SCT004 BKN016
TEMPO 2507/2510 4900 BR OVC003
Pas de NOTAMs connus pour ce terrain.



MET'MAP, la Météo Aéronautique d'un coup d'oeil ! - Copyright ORBIFLY Décembre 2007 - Disclaimer

ORBIFLY MET'MAP TEAM :

Programmation & Développement : Alexandra Zaïnal
Conception & Développement : Baudouin d'Aumeries
Co-Programmation & Développement : Marc-Olivier Méhu
Soutien technique & logistique : Manuel Goepfert

Contact : metmap@orbifly.com




SOURCES & CREDITS :

   NOAA